Time;durP1;ratioP1;P1;durP2;ratioP2;P2;SDS_P1;SDS_P2;PMS_P1;PMS_P2;Temp;Humidity;BMP_temperature;BMP_pressure;BME280_temperature;BME280_humidity;BME280_pressure;Samples;Min_cycle;Max_cycle;Signal;HPM_P1;HPM_P2
2021/12/01 00:00:14;;;;;;;;;;;;;;;;;;4084999;29;7080;-47
2021/12/01 00:02:45;;;;;;;;;;;;;;;;;;4084907;29;7166;-48
2021/12/01 00:05:07;;;;;;;;;;;;;;;;;;4084902;29;7014;-48
2021/12/01 00:07:29;;;;;;;;;;;;;;;;;;4084537;29;7030;-48
2021/12/01 00:09:51;;;;;;;;;;;;;;;;;;4084748;28;7006;-48
2021/12/01 00:12:12;;;;;;;;;;;;;;;;;;4084693;29;6991;-48
2021/12/01 00:14:35;;;;;;;;;;;;;;;;;;4084752;29;6995;-48
2021/12/01 00:16:57;;;;;;;;;;;;;;;;;;4084648;29;6991;-48
2021/12/01 00:19:18;;;;;;;;;;;;;;;;;;4084676;29;7181;-48
2021/12/01 00:21:39;;;;;;;;;;;;;;;;;;4084619;29;6987;-47
2021/12/01 00:24:00;;;;;;;;;;;;;;;;;;4084600;29;6983;-48
2021/12/01 00:26:22;;;;;;;;;;;;;;;;;;4084663;29;7101;-48
2021/12/01 00:28:43;;;;;;;;;;;;;;;;;;4084357;29;7034;-48
2021/12/01 00:31:06;;;;;;;;;;;;;;;;;;4084300;29;6992;-48
2021/12/01 00:33:27;;;;;;;;;;;;;;;;;;4084420;29;7123;-47
2021/12/01 00:35:50;;;;;;;;;;;;;;;;;;4084397;29;7176;-48
2021/12/01 00:38:13;;;;;;;;;;;;;;;;;;4084437;29;7381;-48
2021/12/01 00:40:34;;;;;;;;;;;;;;;;;;4084350;29;6991;-48
2021/12/01 00:42:56;;;;;;;;;;;;;;;;;;4084384;29;7035;-48
2021/12/01 00:45:18;;;;;;;;;;;;;;;;;;4084345;29;7170;-47
2021/12/01 00:47:46;;;;;;;;;;;;;;;;;;4084330;29;7039;-48
2021/12/01 00:50:08;;;;;;;;;;;;;;;;;;4084382;29;7169;-48
2021/12/01 00:52:29;;;;;;;;;;;;;;;;;;4084218;29;6983;-48
2021/12/01 00:54:52;;;;;;;;;;;;;;;;;;4084102;29;6988;-48
2021/12/01 00:57:13;;;;;;;;;;;;;;;;;;4083326;29;7468;-48
2021/12/01 00:59:35;;;;;;;;;;;;;;;;;;4084124;29;7011;-48
2021/12/01 01:01:56;;;;;;;;;;;;;;;;;;4083888;29;6986;-48
2021/12/01 01:04:19;;;;;;;;;;;;;;;;;;4084352;29;7388;-48
2021/12/01 01:06:41;;;;;;;;;;;;;;;;;;4084037;29;7011;-47
2021/12/01 01:09:05;;;;;;;;;;;;;;;;;;4083966;29;7011;-48
2021/12/01 01:16:45;;;;;;;;;;;;;;;;;;4083840;29;6962;-47
2021/12/01 01:19:06;;;;;;;;;;;;;;;;;;4083933;29;6991;-47
2021/12/01 01:21:29;;;;;;;;;;;;;;;;;;4083915;29;7047;-47
2021/12/01 01:23:51;;;;;;;;;;;;;;;;;;4083898;29;6999;-47
2021/12/01 01:26:12;;;;;;;;;;;;;;;;;;4083751;29;7042;-47
2021/12/01 01:28:34;;;;;;;;;;;;;;;;;;4083851;29;6983;-47
2021/12/01 01:30:55;;;;;;;;;;;;;;;;;;4083890;29;7031;-47
2021/12/01 01:33:17;;;;;;;;;;;;;;;;;;4083884;29;7011;-47
2021/12/01 01:35:39;;;;;;;;;;;;;;;;;;4083939;29;7147;-47
2021/12/01 01:38:01;;;;;;;;;;;;;;;;;;4083731;29;6990;-48
2021/12/01 01:40:23;;;;;;;;;;;;;;;;;;4083787;29;6986;-47
2021/12/01 01:42:44;;;;;;;;;;;;;;;;;;4083597;29;7058;-48
2021/12/01 01:45:06;;;;;;;;;;;;;;;;;;4083960;29;7426;-47
2021/12/01 01:47:27;;;;;;;;;;;;;;;;;;4083888;29;7150;-47
2021/12/01 01:49:53;;;;;;;;;;;;;;;;;;4096270;29;6995;-48
2021/12/01 01:52:14;;;;;;;;;;;;;;;;;;4083698;29;6991;-48
2021/12/01 01:54:37;;;;;;;;;;;;;;;;;;4096179;29;7146;-48
2021/12/01 01:57:00;;;;;;;;;;;;;;;;;;4083717;29;7995;-48
2021/12/01 01:59:21;;;;;;;;;;;;;;;;;;4083204;29;6972;-48
2021/12/01 02:01:46;;;;;;;;;;;;;;;;;;4083380;29;7128;-47
2021/12/01 02:04:08;;;;;;;;;;;;;;;;;;4083225;29;6994;-47
2021/12/01 02:06:31;;;;;;;;;;;;;;;;;;4082821;29;7054;-48
2021/12/01 02:08:53;;;;;;;;;;;;;;;;;;4083933;29;7027;-48
2021/12/01 02:11:16;;;;;;;;;;;;;;;;;;4085991;29;7101;-47
2021/12/01 02:13:39;;;;;;;;;;;;;;;;;;4085803;29;7062;-48
2021/12/01 02:16:01;;;;;;;;;;;;;;;;;;4086052;29;7066;-47
2021/12/01 02:18:22;;;;;;;;;;;;;;;;;;4086055;29;6991;-48
2021/12/01 02:20:51;;;;;;;;;;;;;;;;;;4098230;28;7209;-48
2021/12/01 02:23:13;;;;;;;;;;;;;;;;;;4085734;29;7006;-48
2021/12/01 02:25:34;;;;;;;;;;;;;;;;;;4086521;29;7007;-47
2021/12/01 02:27:56;;;;;;;;;;;;;;;;;;4086077;29;7083;-47
2021/12/01 02:30:17;;;;;;;;;;;;;;;;;;4084932;29;7115;-48
2021/12/01 02:32:38;;;;;;;;;;;;;;;;;;4086097;29;7146;-48
2021/12/01 02:35:00;;;;;;;;;;;;;;;;;;4086055;29;6984;-48
2021/12/01 02:37:23;;;;;;;;;;;;;;;;;;4085947;29;7078;-48
2021/12/01 02:39:44;;;;;;;;;;;;;;;;;;4086135;29;7154;-48
2021/12/01 02:42:07;;;;;;;;;;;;;;;;;;4086164;29;7014;-48
2021/12/01 02:44:29;;;;;;;;;;;;;;;;;;4085873;29;6999;-48
2021/12/01 02:46:50;;;;;;;;;;;;;;;;;;4086052;29;7099;-48
2021/12/01 02:49:12;;;;;;;;;;;;;;;;;;4085823;29;7019;-48
2021/12/01 02:51:36;;;;;;;;;;;;;;;;;;4085841;29;6999;-48
2021/12/01 02:53:59;;;;;;;;;;;;;;;;;;4085864;29;6999;-48
2021/12/01 02:56:24;;;;;;;;;;;;;;;;;;4085806;29;7134;-48
2021/12/01 02:58:45;;;;;;;;;;;;;;;;;;4085724;29;7030;-48
2021/12/01 03:01:07;;;;;;;;;;;;;;;;;;4085878;29;7046;-48
2021/12/01 03:03:29;;;;;;;;;;;;;;;;;;4085863;29;7034;-48
2021/12/01 03:05:50;;;;;;;;;;;;;;;;;;4085572;29;6990;-49
2021/12/01 03:08:11;;;;;;;;;;;;;;;;;;4085726;29;6995;-47
2021/12/01 03:10:34;;;;;;;;;;;;;;;;;;4085731;29;7062;-48
2021/12/01 03:12:56;;;;;;;;;;;;;;;;;;4085336;29;6995;-47
2021/12/01 03:15:19;;;;;;;;;;;;;;;;;;4085620;29;6994;-48
2021/12/01 03:17:40;;;;;;;;;;;;;;;;;;4085671;29;6998;-47
2021/12/01 03:20:02;;;;;;;;;;;;;;;;;;4084700;29;7137;-48
2021/12/01 03:22:23;;;;;;;;;;;;;;;;;;4085390;29;7155;-47
2021/12/01 03:24:45;;;;;;;;;;;;;;;;;;4085391;29;6992;-48
2021/12/01 03:27:07;;;;;;;;;;;;;;;;;;4085345;29;6991;-48
2021/12/01 03:29:28;;;;;;;;;;;;;;;;;;4085024;29;7011;-48
2021/12/01 03:31:50;;;;;;;;;;;;;;;;;;4085356;29;6979;-48
2021/12/01 03:34:11;;;;;;;;;;;;;;;;;;4085242;29;6995;-47
2021/12/01 03:36:32;;;;;;;;;;;;;;;;;;4085031;29;6966;-48
2021/12/01 03:38:54;;;;;;;;;;;;;;;;;;4085106;29;7193;-48
2021/12/01 03:41:15;;;;;;;;;;;;;;;;;;4085093;29;7134;-47
2021/12/01 03:43:38;;;;;;;;;;;;;;;;;;4084968;29;7154;-48
2021/12/01 03:45:59;;;;;;;;;;;;;;;;;;4085146;29;7692;-48
2021/12/01 03:48:21;;;;;;;;;;;;;;;;;;4085194;29;7184;-48
2021/12/01 03:50:48;;;;;;;;;;;;;;;;;;4084735;29;7423;-48
2021/12/01 03:53:10;;;;;;;;;;;;;;;;;;4084949;29;6990;-48
2021/12/01 03:55:31;;;;;;;;;;;;;;;;;;4085125;29;6994;-49
2021/12/01 03:57:52;;;;;;;;;;;;;;;;;;4084765;29;6986;-48
2021/12/01 04:00:16;;;;;;;;;;;;;;;;;;4084864;29;7003;-48
2021/12/01 04:02:37;;;;;;;;;;;;;;;;;;4084842;29;7147;-48
2021/12/01 04:04:58;;;;;;;;;;;;;;;;;;4084846;29;7207;-48
2021/12/01 04:07:20;;;;;;;;;;;;;;;;;;4085020;29;7035;-47
2021/12/01 04:09:42;;;;;;;;;;;;;;;;;;4084794;29;7158;-48
2021/12/01 04:12:03;;;;;;;;;;;;;;;;;;4084541;29;7015;-48
2021/12/01 04:14:25;;;;;;;;;;;;;;;;;;4084243;29;7007;-49
2021/12/01 04:16:47;;;;;;;;;;;;;;;;;;4084658;29;7032;-48
2021/12/01 04:19:09;;;;;;;;;;;;;;;;;;4084505;29;6995;-48
2021/12/01 04:21:30;;;;;;;;;;;;;;;;;;4084671;29;7155;-48
2021/12/01 04:23:51;;;;;;;;;;;;;;;;;;4084709;29;7131;-48
2021/12/01 04:26:17;;;;;;;;;;;;;;;;;;4084636;29;6975;-48
2021/12/01 04:28:38;;;;;;;;;;;;;;;;;;4084493;29;7003;-48
2021/12/01 04:30:59;;;;;;;;;;;;;;;;;;4084519;29;7062;-48
2021/12/01 04:33:22;;;;;;;;;;;;;;;;;;4084358;29;7003;-48
2021/12/01 04:35:44;;;;;;;;;;;;;;;;;;4084457;29;7027;-49
2021/12/01 04:38:06;;;;;;;;;;;;;;;;;;4084374;29;7084;-48
2021/12/01 04:40:28;;;;;;;;;;;;;;;;;;4084434;29;7006;-47
2021/12/01 04:42:50;;;;;;;;;;;;;;;;;;4084307;29;7134;-48
2021/12/01 04:45:14;;;;;;;;;;;;;;;;;;4084293;29;7014;-49
2021/12/01 04:47:41;;;;;;;;;;;;;;;;;;4084421;29;7166;-48
2021/12/01 04:50:04;;;;;;;;;;;;;;;;;;4084314;29;7026;-48
2021/12/01 04:52:25;;;;;;;;;;;;;;;;;;4084258;29;7040;-48
2021/12/01 04:54:47;;;;;;;;;;;;;;;;;;4084115;29;6991;-48
2021/12/01 04:57:08;;;;;;;;;;;;;;;;;;4084239;29;7086;-48
2021/12/01 04:59:29;;;;;;;;;;;;;;;;;;4084223;29;6967;-48
2021/12/01 05:01:52;;;;;;;;;;;;;;;;;;4084189;29;7034;-48
2021/12/01 05:04:14;;;;;;;;;;;;;;;;;;4052777;29;7170;-47
2021/12/01 05:06:36;;;;;;;;;;;;;;;;;;4052532;29;7011;-48
2021/12/01 05:08:58;;;;;;;;;;;;;;;;;;4052592;29;6967;-47
2021/12/01 05:11:19;;;;;;;;;;;;;;;;;;4052728;29;6991;-48
2021/12/01 05:13:40;;;;;;;;;;;;;;;;;;4052563;29;7015;-48
2021/12/01 05:16:02;;;;;;;;;;;;;;;;;;4052722;29;6970;-48
2021/12/01 05:18:23;;;;;;;;;;;;;;;;;;4052449;29;7411;-49
2021/12/01 05:20:44;;;;;;;;;;;;;;;;;;4052486;29;7001;-48
2021/12/01 05:23:07;;;;;;;;;;;;;;;;;;4052666;29;7187;-48
2021/12/01 05:25:29;;;;;;;;;;;;;;;;;;4052622;29;7106;-49
2021/12/01 05:27:50;;;;;;;;;;;;;;;;;;4052574;29;7011;-48
2021/12/01 05:30:12;;;;;;;;;;;;;;;;;;4052527;29;6983;-49
2021/12/01 05:32:33;;;;;;;;;;;;;;;;;;4052490;29;7247;-48
2021/12/01 05:34:54;;;;;;;;;;;;;;;;;;4052573;29;6995;-48
2021/12/01 05:37:15;;;;;;;;;;;;;;;;;;4052684;29;6995;-49
2021/12/01 05:39:41;;;;;;;;;;;;;;;;;;4052464;29;7000;-48
2021/12/01 05:42:02;;;;;;;;;;;;;;;;;;4052590;29;7154;-48
2021/12/01 05:44:23;;;;;;;;;;;;;;;;;;4054433;29;6994;-48
2021/12/01 05:46:45;;;;;;;;;;;;;;;;;;4055531;29;6963;-48
2021/12/01 05:49:06;;;;;;;;;;;;;;;;;;4055653;29;7143;-48
2021/12/01 05:51:27;;;;;;;;;;;;;;;;;;4055575;29;6983;-48
2021/12/01 05:53:48;;;;;;;;;;;;;;;;;;4055458;29;7016;-47
2021/12/01 05:56:11;;;;;;;;;;;;;;;;;;4055507;29;7123;-48
2021/12/01 05:58:33;;;;;;;;;;;;;;;;;;4055363;29;7198;-48
2021/12/01 06:00:54;;;;;;;;;;;;;;;;;;4055269;29;7146;-48
2021/12/01 06:03:16;;;;;;;;;;;;;;;;;;4076205;29;7027;-48
2021/12/01 06:05:37;;;;;;;;;;;;;;;;;;4086596;29;7369;-48
2021/12/01 06:07:59;;;;;;;;;;;;;;;;;;4086696;29;6985;-47
2021/12/01 06:10:20;;;;;;;;;;;;;;;;;;4086679;29;7189;-48
2021/12/01 06:12:44;;;;;;;;;;;;;;;;;;4086618;29;7138;-48
2021/12/01 06:15:07;;;;;;;;;;;;;;;;;;4086500;29;7027;-48
2021/12/01 06:17:28;;;;;;;;;;;;;;;;;;4086395;29;7116;-49
2021/12/01 06:19:49;;;;;;;;;;;;;;;;;;4086332;29;7011;-48
2021/12/01 06:22:11;;;;;;;;;;;;;;;;;;4086200;29;6999;-48
2021/12/01 06:24:32;;;;;;;;;;;;;;;;;;4086319;29;7082;-48
2021/12/01 06:26:53;;;;;;;;;;;;;;;;;;4086344;29;7015;-47
2021/12/01 06:29:16;;;;;;;;;;;;;;;;;;4086280;29;7054;-48
2021/12/01 06:31:37;;;;;;;;;;;;;;;;;;4086302;29;6999;-48
2021/12/01 06:33:59;;;;;;;;;;;;;;;;;;4086144;29;7019;-48
2021/12/01 06:36:21;;;;;;;;;;;;;;;;;;4086117;29;7109;-48
2021/12/01 06:38:42;;;;;;;;;;;;;;;;;;4086214;29;7046;-48
2021/12/01 06:41:03;;;;;;;;;;;;;;;;;;4098737;28;6991;-48
2021/12/01 06:43:25;;;;;;;;;;;;;;;;;;4098529;28;6987;-48
2021/12/01 06:45:47;;;;;;;;;;;;;;;;;;4086150;29;6975;-48
2021/12/01 06:48:09;;;;;;;;;;;;;;;;;;4085903;29;6990;-48
2021/12/01 06:50:30;;;;;;;;;;;;;;;;;;4085812;29;7003;-48
2021/12/01 06:52:52;;;;;;;;;;;;;;;;;;4086034;29;6999;-48
2021/12/01 06:55:13;;;;;;;;;;;;;;;;;;4084661;29;7240;-47
2021/12/01 06:57:34;;;;;;;;;;;;;;;;;;4085920;29;7066;-47
2021/12/01 06:59:55;;;;;;;;;;;;;;;;;;4085662;29;7152;-48
2021/12/01 07:02:18;;;;;;;;;;;;;;;;;;4085489;29;7373;-48
2021/12/01 07:04:40;;;;;;;;;;;;;;;;;;4085891;29;7007;-48
2021/12/01 07:07:01;;;;;;;;;;;;;;;;;;4085817;29;7003;-47
2021/12/01 07:09:24;;;;;;;;;;;;;;;;;;4085744;29;7115;-48
2021/12/01 07:11:46;;;;;;;;;;;;;;;;;;4098134;28;7257;-50
2021/12/01 07:14:07;;;;;;;;;;;;;;;;;;4085549;29;7058;-48
2021/12/01 07:16:30;;;;;;;;;;;;;;;;;;4085671;29;7027;-47
2021/12/01 07:18:52;;;;;;;;;;;;;;;;;;4085605;29;7030;-48
2021/12/01 07:21:14;;;;;;;;;;;;;;;;;;4085473;29;7294;-47
2021/12/01 07:23:35;;;;;;;;;;;;;;;;;;4085356;29;6990;-48
2021/12/01 07:25:57;;;;;;;;;;;;;;;;;;4085453;29;7043;-47
2021/12/01 07:28:18;;;;;;;;;;;;;;;;;;4085424;29;7002;-48
2021/12/01 07:30:39;;;;;;;;;;;;;;;;;;4085447;29;6972;-48
2021/12/01 07:33:01;;;;;;;;;;;;;;;;;;4085238;29;7004;-48
2021/12/01 07:35:24;;;;;;;;;;;;;;;;;;4085256;29;6991;-47
2021/12/01 07:37:46;;;;;;;;;;;;;;;;;;4092925;28;6987;-48
2021/12/01 07:40:08;;;;;;;;;;;;;;;;;;4098012;28;7181;-48
2021/12/01 07:42:29;;;;;;;;;;;;;;;;;;4092683;28;7115;-48
2021/12/01 07:44:50;;;;;;;;;;;;;;;;;;4092756;28;7007;-47
2021/12/01 07:47:12;;;;;;;;;;;;;;;;;;4092788;28;7169;-48
2021/12/01 07:49:34;;;;;;;;;;;;;;;;;;4093723;28;7080;-47
2021/12/01 07:51:56;;;;;;;;;;;;;;;;;;4099224;28;6979;-47
2021/12/01 07:54:18;;;;;;;;;;;;;;;;;;4094434;28;7078;-49
2021/12/01 07:56:39;;;;;;;;;;;;;;;;;;4097579;28;6995;-47
2021/12/01 07:59:00;;;;;;;;;;;;;;;;;;4092645;28;7155;-47
2021/12/01 08:01:22;;;;;;;;;;;;;;;;;;4092013;28;7159;-49
2021/12/01 08:03:43;;;;;;;;;;;;;;;;;;4092308;28;7431;-48
2021/12/01 08:06:05;;;;;;;;;;;;;;;;;;4089466;28;7101;-47
2021/12/01 08:08:27;;;;;;;;;;;;;;;;;;4107280;28;6983;-48
2021/12/01 08:10:49;;;;;;;;;;;;;;;;;;4092194;28;7122;-48
2021/12/01 08:13:10;;;;;;;;;;;;;;;;;;4097663;28;7135;-48
2021/12/01 08:15:32;;;;;;;;;;;;;;;;;;4092396;28;6971;-48
2021/12/01 08:17:53;;;;;;;;;;;;;;;;;;4092291;28;6979;-47
2021/12/01 08:20:15;;;;;;;;;;;;;;;;;;4096282;28;7196;-48
2021/12/01 08:22:36;;;;;;;;;;;;;;;;;;4093231;28;6991;-47
2021/12/01 08:24:59;;;;;;;;;;;;;;;;;;4088632;28;7059;-48
2021/12/01 08:27:20;;;;;;;;;;;;;;;;;;4098466;28;8132;-48
2021/12/01 08:29:42;;;;;;;;;;;;;;;;;;4091428;28;7042;-48
2021/12/01 08:32:03;;;;;;;;;;;;;;;;;;4099917;28;7131;-48
2021/12/01 08:34:24;;;;;;;;;;;;;;;;;;4094676;28;7007;-48
2021/12/01 08:36:47;;;;;;;;;;;;;;;;;;4097247;28;7209;-48
2021/12/01 08:39:08;;;;;;;;;;;;;;;;;;4094190;28;7019;-49
2021/12/01 08:41:30;;;;;;;;;;;;;;;;;;4092973;28;7106;-48
2021/12/01 08:43:52;;;;;;;;;;;;;;;;;;4098157;28;7392;-48
2021/12/01 08:46:13;;;;;;;;;;;;;;;;;;4099766;28;6971;-48
2021/12/01 08:48:36;;;;;;;;;;;;;;;;;;4096154;28;7601;-48
2021/12/01 08:51:01;;;;;;;;;;;;;;;;;;4100101;28;7074;-47
2021/12/01 08:53:22;;;;;;;;;;;;;;;;;;4100044;28;7026;-48
2021/12/01 08:55:44;;;;;;;;;;;;;;;;;;4099864;28;6988;-48
2021/12/01 08:58:07;;;;;;;;;;;;;;;;;;4099929;28;6991;-48
2021/12/01 09:00:33;;;;;;;;;;;;;;;;;;4099921;28;7384;-48
2021/12/01 09:02:54;;;;;;;;;;;;;;;;;;4100029;28;6986;-47
2021/12/01 09:05:16;;;;;;;;;;;;;;;;;;4099944;28;7138;-47
2021/12/01 09:07:37;;;;;;;;;;;;;;;;;;4091379;28;7010;-48
2021/12/01 09:09:58;;;;;;;;;;;;;;;;;;4095572;28;7042;-49
2021/12/01 09:12:20;;;;;;;;;;;;;;;;;;4099693;28;7033;-49
2021/12/01 09:14:43;;;;;;;;;;;;;;;;;;4099698;28;6975;-48
2021/12/01 09:17:05;;;;;;;;;;;;;;;;;;4099692;28;7216;-48
2021/12/01 09:19:27;;;;;;;;;;;;;;;;;;4098878;29;6986;-47
2021/12/01 09:21:48;;;;;;;;;;;;;;;;;;4099363;29;6990;-47
2021/12/01 09:24:09;;;;;;;;;;;;;;;;;;4099550;29;6991;-47
2021/12/01 09:26:30;;;;;;;;;;;;;;;;;;4098638;28;6971;-49
2021/12/01 09:28:51;;;;;;;;;;;;;;;;;;4101374;28;7014;-47
2021/12/01 09:31:14;;;;;;;;;;;;;;;;;;4083570;29;7087;-47
2021/12/01 09:33:35;;;;;;;;;;;;;;;;;;4083792;29;7049;-48
2021/12/01 09:35:56;;;;;;;;;;;;;;;;;;4096100;29;7265;-47
2021/12/01 09:38:18;;;;;;;;;;;;;;;;;;4098750;29;7205;-47
2021/12/01 09:40:39;;;;;;;;;;;;;;;;;;4096849;29;6999;-48
2021/12/01 09:43:01;;;;;;;;;;;;;;;;;;4099306;29;7072;-48
2021/12/01 09:45:23;;;;;;;;;;;;;;;;;;4099117;28;7050;-48
2021/12/01 09:47:46;;;;;;;;;;;;;;;;;;4099333;29;7007;-49
2021/12/01 09:50:08;;;;;;;;;;;;;;;;;;4099291;29;7031;-48
2021/12/01 09:52:29;;;;;;;;;;;;;;;;;;4098981;29;6994;-48
2021/12/01 09:54:51;;;;;;;;;;;;;;;;;;4097235;29;7423;-49
2021/12/01 09:57:14;;;;;;;;;;;;;;;;;;4083384;29;7031;-48
2021/12/01 09:59:35;;;;;;;;;;;;;;;;;;4084695;29;7003;-48
2021/12/01 10:01:57;;;;;;;;;;;;;;;;;;4101331;28;6991;-48
2021/12/01 10:04:20;;;;;;;;;;;;;;;;;;4090798;28;7035;-48
2021/12/01 10:06:41;;;;;;;;;;;;;;;;;;4089419;29;8245;-48
2021/12/01 10:09:04;;;;;;;;;;;;;;;;;;4091389;29;6979;-48
2021/12/01 10:11:26;;;;;;;;;;;;;;;;;;4091690;29;7003;-49
2021/12/01 10:13:51;;;;;;;;;;;;;;;;;;4100427;29;7182;-50
2021/12/01 10:16:13;;;;;;;;;;;;;;;;;;4099725;28;7231;-52
2021/12/01 10:18:38;;;;;;;;;;;;;;;;;;4093415;29;7010;-50
2021/12/01 10:21:06;;;;;;;;;;;;;;;;;;4084114;29;7049;-50
2021/12/01 10:23:28;;;;;;;;;;;;;;;;;;4093840;29;7028;-49
2021/12/01 10:25:49;;;;;;;;;;;;;;;;;;4091163;29;6991;-47
2021/12/01 10:28:13;;;;;;;;;;;;;;;;;;4085767;29;6989;-50
2021/12/01 10:30:39;;;;;;;;;;;;;;;;;;4100320;28;7014;-48
2021/12/01 10:33:07;;;;;;;;;;;;;;;;;;4100082;28;7199;-47
2021/12/01 10:35:35;;;;;;;;;;;;;;;;;;4101946;28;6995;-47
2021/12/01 10:37:57;;;;;;;;;;;;;;;;;;4101068;28;6999;-46
2021/12/01 10:40:21;;;;;;;;;;;;;;;;;;4101386;28;7360;-47
2021/12/01 10:42:50;;;;;;;;;;;;;;;;;;4101743;28;7391;-47
2021/12/01 10:45:11;;;;;;;;;;;;;;;;;;4101813;28;6971;-47
2021/12/01 10:47:36;;;;;;;;;;;;;;;;;;4101561;28;7007;-48
2021/12/01 10:49:58;;;;;;;;;;;;;;;;;;4101766;28;6991;-47
2021/12/01 10:52:30;;;;;;;;;;;;;;;;;;4101436;28;7066;-47
2021/12/01 10:55:03;;;;;;;;;;;;;;;;;;4101572;28;7050;-47
2021/12/01 10:57:24;;;;;;;;;;;;;;;;;;4102109;28;7070;-47
2021/12/01 10:59:45;;;;;;;;;;;;;;;;;;4101518;28;7166;-47
2021/12/01 11:02:10;;;;;;;;;;;;;;;;;;4101398;28;6982;-48
2021/12/01 11:04:42;;;;;;;;;;;;;;;;;;4085550;29;6974;-47
2021/12/01 11:07:03;;;;;;;;;;;;;;;;;;4091149;28;7152;-47
2021/12/01 11:09:24;;;;;;;;;;;;;;;;;;4101468;28;7467;-47
2021/12/01 11:11:51;;;;;;;;;;;;;;;;;;4101214;28;7003;-47
2021/12/01 11:14:13;;;;;;;;;;;;;;;;;;4101325;28;7059;-48
2021/12/01 11:16:36;;;;;;;;;;;;;;;;;;4101355;28;7003;-47
2021/12/01 11:18:57;;;;;;;;;;;;;;;;;;4101293;28;7510;-47
2021/12/01 11:21:18;;;;;;;;;;;;;;;;;;4101260;28;7145;-48
2021/12/01 11:23:40;;;;;;;;;;;;;;;;;;4084948;29;7027;-47
2021/12/01 11:26:04;;;;;;;;;;;;;;;;;;4085009;29;7026;-47
2021/12/01 11:28:27;;;;;;;;;;;;;;;;;;4085264;29;6995;-47
2021/12/01 11:30:49;;;;;;;;;;;;;;;;;;4084861;29;7007;-47
2021/12/01 11:33:13;;;;;;;;;;;;;;;;;;4085233;29;6999;-50
2021/12/01 11:35:34;;;;;;;;;;;;;;;;;;4085312;29;6995;-47
2021/12/01 11:37:57;;;;;;;;;;;;;;;;;;4097828;28;7158;-46
2021/12/01 11:40:19;;;;;;;;;;;;;;;;;;4100943;28;7176;-47
2021/12/01 11:42:40;;;;;;;;;;;;;;;;;;4099997;28;7089;-47
2021/12/01 15:33:10;;;;;;;;;;;;;;;;;;4079085;28;7122;-47
2021/12/01 15:35:32;;;;;;;;;;;;;;;;;;4085159;29;6990;-48
2021/12/01 15:37:53;;;;;;;;;;;;;;;;;;4082820;29;7496;-47
2021/12/01 15:40:14;;;;;;;;;;;;;;;;;;4084352;29;7126;-47
2021/12/01 15:42:36;;;;;;;;;;;;;;;;;;4084883;29;7003;-47
2021/12/01 15:44:57;;;;;;;;;;;;;;;;;;4084701;29;7010;-47
2021/12/01 15:47:22;;;;;;;;;;;;;;;;;;4084836;29;6990;-47
2021/12/01 15:49:45;;;;;;;;;;;;;;;;;;4080896;29;7157;-47
2021/12/01 15:52:07;;;;;;;;;;;;;;;;;;4083781;29;7007;-48
2021/12/01 15:54:28;;;;;;;;;;;;;;;;;;4084951;29;7040;-48
2021/12/01 15:56:50;;;;;;;;;;;;;;;;;;4084768;29;6987;-49
2021/12/01 15:59:12;;;;;;;;;;;;;;;;;;4084931;29;6995;-48
2021/12/01 16:01:34;;;;;;;;;;;;;;;;;;4084831;29;7388;-48
2021/12/01 16:03:56;;;;;;;;;;;;;;;;;;4082778;28;6999;-49
2021/12/01 16:06:19;;;;;;;;;;;;;;;;;;4085623;28;7190;-48
2021/12/01 16:08:40;;;;;;;;;;;;;;;;;;4069079;29;6983;-49
2021/12/01 16:11:02;;;;;;;;;;;;;;;;;;4068868;29;7411;-50
2021/12/01 16:13:23;;;;;;;;;;;;;;;;;;4068520;29;7054;-48
2021/12/01 16:15:45;;;;;;;;;;;;;;;;;;4068759;29;7477;-49
2021/12/01 16:18:06;;;;;;;;;;;;;;;;;;4068966;29;7027;-48
2021/12/01 16:20:28;;;;;;;;;;;;;;;;;;4068935;29;6991;-48
2021/12/01 16:22:50;;;;;;;;;;;;;;;;;;4080295;29;6987;-47
2021/12/01 16:25:13;;;;;;;;;;;;;;;;;;4084141;29;6974;-48
2021/12/01 16:27:34;;;;;;;;;;;;;;;;;;4085559;28;7006;-48
2021/12/01 16:30:01;;;;;;;;;;;;;;;;;;4081897;29;6990;-49
2021/12/01 16:32:23;;;;;;;;;;;;;;;;;;4087150;28;7051;-48
2021/12/01 16:34:45;;;;;;;;;;;;;;;;;;4095083;28;6998;-48
2021/12/01 16:37:08;;;;;;;;;;;;;;;;;;4094989;28;7196;-48
2021/12/01 16:39:31;;;;;;;;;;;;;;;;;;4085089;28;7002;-49
2021/12/01 16:41:52;;;;;;;;;;;;;;;;;;4084106;29;6979;-48
2021/12/01 16:44:14;;;;;;;;;;;;;;;;;;4084253;29;6990;-48
2021/12/01 16:46:35;;;;;;;;;;;;;;;;;;4084406;28;6991;-48
2021/12/01 16:48:56;;;;;;;;;;;;;;;;;;4096567;28;7154;-48
2021/12/01 16:51:20;;;;;;;;;;;;;;;;;;4084028;29;6990;-47
2021/12/01 16:53:42;;;;;;;;;;;;;;;;;;4092755;28;7011;-48
2021/12/01 16:56:04;;;;;;;;;;;;;;;;;;4100055;28;7350;-48
2021/12/01 16:58:26;;;;;;;;;;;;;;;;;;4099834;28;7063;-48
2021/12/01 17:00:48;;;;;;;;;;;;;;;;;;4099822;28;7054;-49
2021/12/01 17:03:20;;;;;;;;;;;;;;;;;;4099595;28;7014;-48
2021/12/01 17:05:46;;;;;;;;;;;;;;;;;;4084397;29;6986;-48
2021/12/01 17:08:28;;;;;;;;;;;;;;;;;;4097849;28;6992;-50
2021/12/01 17:10:49;;;;;;;;;;;;;;;;;;4089360;28;7058;-48
2021/12/01 17:13:14;;;;;;;;;;;;;;;;;;4099637;28;6990;-48
2021/12/01 17:15:35;;;;;;;;;;;;;;;;;;4099732;28;7011;-48
2021/12/01 17:17:57;;;;;;;;;;;;;;;;;;4099735;28;7070;-48
2021/12/01 17:20:19;;;;;;;;;;;;;;;;;;4099653;28;7010;-49
2021/12/01 17:22:41;;;;;;;;;;;;;;;;;;4099211;28;7605;-48
2021/12/01 17:25:02;;;;;;;;;;;;;;;;;;4099372;29;6998;-48
2021/12/01 17:27:25;;;;;;;;;;;;;;;;;;4099311;29;6987;-48
2021/12/01 17:29:51;;;;;;;;;;;;;;;;;;4099504;29;7011;-48
2021/12/01 17:32:16;;;;;;;;;;;;;;;;;;4099378;29;7069;-48
2021/12/01 17:34:38;;;;;;;;;;;;;;;;;;4099391;29;7003;-48
2021/12/01 17:37:00;;;;;;;;;;;;;;;;;;4098668;29;7011;-49
2021/12/01 17:39:22;;;;;;;;;;;;;;;;;;4099775;28;7137;-49
2021/12/01 17:41:44;;;;;;;;;;;;;;;;;;4102833;28;7003;-48
2021/12/01 17:44:06;;;;;;;;;;;;;;;;;;4102610;28;7030;-49
2021/12/01 17:46:28;;;;;;;;;;;;;;;;;;4102056;28;7079;-48
2021/12/01 17:48:50;;;;;;;;;;;;;;;;;;4102589;28;7011;-48
2021/12/01 17:51:11;;;;;;;;;;;;;;;;;;4102384;28;6987;-49
2021/12/01 17:53:33;;;;;;;;;;;;;;;;;;4086725;29;6970;-49
2021/12/01 17:55:54;;;;;;;;;;;;;;;;;;4086708;29;6994;-48
2021/12/01 17:58:15;;;;;;;;;;;;;;;;;;4086564;29;6987;-48
2021/12/01 18:00:37;;;;;;;;;;;;;;;;;;4086761;29;7466;-49
2021/12/01 18:03:00;;;;;;;;;;;;;;;;;;4086682;29;7134;-49
2021/12/01 18:05:22;;;;;;;;;;;;;;;;;;4086410;29;7002;-48
2021/12/01 18:07:43;;;;;;;;;;;;;;;;;;4096800;28;7072;-48
2021/12/01 18:10:05;;;;;;;;;;;;;;;;;;4082692;29;7526;-49
2021/12/01 18:12:27;;;;;;;;;;;;;;;;;;4086548;29;6998;-49
2021/12/01 18:14:48;;;;;;;;;;;;;;;;;;4086482;29;7001;-48
2021/12/01 18:17:11;;;;;;;;;;;;;;;;;;4086435;29;6997;-49
2021/12/01 18:19:34;;;;;;;;;;;;;;;;;;4086279;29;7049;-49
2021/12/01 18:21:55;;;;;;;;;;;;;;;;;;4090874;28;7436;-48
2021/12/01 18:24:17;;;;;;;;;;;;;;;;;;4102370;28;7061;-48
2021/12/01 18:26:39;;;;;;;;;;;;;;;;;;4108972;28;6994;-48
2021/12/01 18:29:01;;;;;;;;;;;;;;;;;;4099261;28;6990;-49
2021/12/01 18:31:22;;;;;;;;;;;;;;;;;;4102217;28;7173;-48
2021/12/01 18:33:44;;;;;;;;;;;;;;;;;;4102025;28;7103;-48
2021/12/01 18:36:08;;;;;;;;;;;;;;;;;;4101897;28;7478;-49
2021/12/01 18:38:30;;;;;;;;;;;;;;;;;;4085883;29;6986;-50
2021/12/01 18:40:51;;;;;;;;;;;;;;;;;;4086093;29;7032;-49
2021/12/01 18:43:13;;;;;;;;;;;;;;;;;;4086029;29;7043;-48
2021/12/01 18:45:35;;;;;;;;;;;;;;;;;;4071459;29;6983;-52
2021/12/01 18:47:57;;;;;;;;;;;;;;;;;;4085593;29;6991;-49
2021/12/01 18:50:18;;;;;;;;;;;;;;;;;;4085601;29;6991;-49
2021/12/01 18:52:41;;;;;;;;;;;;;;;;;;4096317;28;6990;-49
2021/12/01 18:55:02;;;;;;;;;;;;;;;;;;4101653;28;7003;-49
2021/12/01 18:57:25;;;;;;;;;;;;;;;;;;4101748;28;7014;-48
2021/12/01 18:59:47;;;;;;;;;;;;;;;;;;4101488;28;6983;-48
2021/12/01 19:02:08;;;;;;;;;;;;;;;;;;4085798;28;7002;-48
2021/12/01 19:04:29;;;;;;;;;;;;;;;;;;4085503;29;7232;-50
2021/12/01 19:06:51;;;;;;;;;;;;;;;;;;4085400;29;7003;-50
2021/12/01 19:09:13;;;;;;;;;;;;;;;;;;4101248;28;7156;-48
2021/12/01 19:11:35;;;;;;;;;;;;;;;;;;4101183;28;7134;-49
2021/12/01 19:13:56;;;;;;;;;;;;;;;;;;4101408;28;7134;-48
2021/12/01 19:16:17;;;;;;;;;;;;;;;;;;4091069;28;7042;-49
2021/12/01 19:18:39;;;;;;;;;;;;;;;;;;4101161;28;6991;-48
2021/12/01 19:21:01;;;;;;;;;;;;;;;;;;4101283;28;7332;-48
2021/12/01 19:23:22;;;;;;;;;;;;;;;;;;4085408;29;6983;-48
2021/12/01 19:25:44;;;;;;;;;;;;;;;;;;4085051;28;7046;-48
2021/12/01 19:28:06;;;;;;;;;;;;;;;;;;4085328;29;7429;-48
2021/12/01 19:30:28;;;;;;;;;;;;;;;;;;4084874;29;7026;-49
2021/12/01 19:32:50;;;;;;;;;;;;;;;;;;4084472;29;7010;-48
2021/12/01 19:35:12;;;;;;;;;;;;;;;;;;4084669;29;7079;-48
2021/12/01 19:37:33;;;;;;;;;;;;;;;;;;4094742;28;7011;-48
2021/12/01 19:39:57;;;;;;;;;;;;;;;;;;4100678;28;7028;-49
2021/12/01 19:42:19;;;;;;;;;;;;;;;;;;4100938;28;6970;-48
2021/12/01 19:44:41;;;;;;;;;;;;;;;;;;4100909;28;7155;-48
2021/12/01 19:47:02;;;;;;;;;;;;;;;;;;4100596;28;7115;-50
2021/12/01 19:49:24;;;;;;;;;;;;;;;;;;4099863;28;7027;-48
2021/12/01 19:51:45;;;;;;;;;;;;;;;;;;4100613;28;6992;-48
2021/12/01 19:54:06;;;;;;;;;;;;;;;;;;4100853;28;6983;-49
2021/12/01 19:56:28;;;;;;;;;;;;;;;;;;4100491;28;7031;-49
2021/12/01 19:58:51;;;;;;;;;;;;;;;;;;4099845;28;7038;-48
2021/12/01 20:01:13;;;;;;;;;;;;;;;;;;4099727;28;7006;-48
2021/12/01 20:03:34;;;;;;;;;;;;;;;;;;4099207;28;7054;-48
2021/12/01 20:05:57;;;;;;;;;;;;;;;;;;4081569;29;7335;-49
2021/12/01 20:08:18;;;;;;;;;;;;;;;;;;4100107;28;6998;-49
2021/12/01 20:10:40;;;;;;;;;;;;;;;;;;4083020;29;7252;-48
2021/12/01 20:13:02;;;;;;;;;;;;;;;;;;4099894;28;7115;-48
2021/12/01 20:15:25;;;;;;;;;;;;;;;;;;4100467;28;7164;-49
2021/12/01 20:17:47;;;;;;;;;;;;;;;;;;4084632;28;6978;-48
2021/12/01 20:20:10;;;;;;;;;;;;;;;;;;4098383;28;7165;-49